Latest Coastal Weather Observations for Cairns

IDQ60701

Issued at 4:32 am EST Wednesday 29 June 2016 (issued every 10 minutes, with the page automatically refreshed every 10 minutes)

About coastal observations | Map of coastal stations | Coastal observations for QLD | Marine services | Other Formats
Station Details ID: 031011 Name: CAIRNS AERO Lat: -16.87 Lon: 145.75 Height: 2.22 m
Data from the previous 72 hours. | See also: Recent months at Cairns
Date/Time
EST
Temp
°C
Wind Pressure Rain since
9am
mm
Weather Cloud Vis
km
Sea
Height
m
Swell
Dir  Spd
kts
Gust
kts
hPa Trend Height
m
Period
s
Dir
29/04:00am 20.7 SSE 18 22 1019.6 - 0.2 - Mostly clear 10 - - - -
29/03:30am 20.6 SSE 14 19 1019.9 - 0.2 - Mostly clear 10 - - - -
29/03:00am 21.0 SSE 15 20 1020.0 R 0.2 - - 10 - - - -
29/02:30am 21.1 SSE 15 21 1020.0 - 0.2 - Mostly clear 10 - - - -
29/02:00am 21.1 SSE 13 18 1020.4 - 0.2 - Mostly clear 10 - - - -
29/01:30am 21.1 SSE 12 19 1020.7 - 0.2 - Mostly clear 10 - - - -
29/01:00am 21.3 SSE 13 17 1020.7 - 0.2 - Mostly clear 10 - - - -
29/12:30am 21.5 SSE 15 21 1020.8 - 0.2 - Mostly clear 10 - - - -
29/12:00am 21.5 SSE 16 21 1020.8 R 0.2 - Mostly clear 10 - - - -
 
Date/Time
EST
Temp
°C
Wind Pressure Rain since
9am
mm
Weather Cloud Vis
km
Sea
Height
m
Swell
Dir  Spd
kts
Gust
kts
hPa Trend Height
m
Period
s
Dir
28/11:30pm 21.4 SSE 16 22 1020.7 - 0.2 - Mostly clear 10 - - - -
28/11:00pm 21.4 S 11 19 1020.8 - 0.2 - Mostly clear 10 - - - -
28/10:30pm 21.2 S 12 18 1021.0 - 0.2 - Mostly clear 10 - - - -
28/10:00pm 21.3 SSE 12 19 1020.9 - 0.2 - Mostly clear 10 - - - -
28/09:30pm 21.6 SSE 13 18 1020.7 - 0.2 - Partly cloudy 10 - - - -
28/09:00pm 21.6 SSE 14 20 1020.6 R 0.2 - Partly cloudy 10 - - - -
28/08:30pm 21.2 S 11 18 1020.3 - 0.2 - Partly cloudy 10 - - - -
28/08:00pm 21.2 SSE 11 16 1020.2 - 0.2 - Partly cloudy 10 - - - -
28/07:30pm 21.3 SSE 10 14 1019.8 - 0.2 - Partly cloudy 10 - - - -
28/07:00pm 21.7 SSE 11 15 1019.4 - 0.2 - Partly cloudy 10 - - - -
28/06:30pm 21.8 SSE 9 14 1019.1 - 0.2 - Partly cloudy 10 - - - -
28/06:00pm 21.9 SSE 11 15 1018.8 R 0.2 - Mostly clear 10 - - - -
28/05:30pm 22.4 SSE 13 18 1018.5 - 0.2 - Partly cloudy 10 - - - -
28/05:00pm 23.1 SSE 14 19 1018.0 - 0.2 - Partly cloudy 10 - - - -
28/04:30pm 23.6 SE 17 20 1017.7 - 0.2 - Mostly clear 10 - - - -
28/04:00pm 24.1 SE 18 21 1017.5 - 0.2 - Mostly clear 10 - - - -
28/03:30pm 25.0 SE 17 20 1017.3 - 0.2 - Partly cloudy 10 - - - -
28/03:00pm 25.5 SE 17 21 1017.4 R 0.2 - Mostly clear 10 - - - -
28/02:30pm 26.0 SE 15 20 1017.3 - 0.2 - Partly cloudy 10 - - - -
28/02:00pm 26.2 SSE 14 18 1017.5 - 0.2 - Mostly clear 10 - - - -
28/01:30pm 25.7 SSE 13 17 1017.6 - 0.0 - Partly cloudy 10 - - - -
28/01:00pm 25.5 SSE 12 17 1017.8 - 0.0 - Partly cloudy 10 - - - -
28/12:30pm 24.5 SSE 11 15 1018.2 - 0.0 - Partly cloudy 10 - - - -
28/12:00pm 23.9 SSE 11 15 1018.6 R 0.0 - Cloudy 10 - - - -
28/11:30am 23.9 SSE 10 13 1018.7 - 0.0 - Mostly cloudy 10 - - - -
28/11:00am 24.1 SSE 11 16 1018.8 - 0.0 - Mostly clear 10 - - - -
28/10:30am 23.9 SSE 9 13 1018.8 - 0.0 - Mostly clear 10 - - - -
28/10:00am 23.7 SSE 11 16 1018.8 - 0.0 - Mostly clear 10 - - - -
28/09:30am 23.0 SSE 9 14 1018.7 - 0.0 - Mostly clear 10 - - - -
28/09:22am 22.9 S 9 14 1018.7 - 0.0 - Mostly clear 10 - - - -
28/09:00am 22.7 S 9 13 1018.6 R 2.2 - Cloudy 10 - - - -
28/08:30am 22.5 S 9 14 1018.3 - 2.2 - Mostly clear 10 - - - -
28/08:00am 22.2 SSE 10 15 1017.9 - 2.2 - Mostly clear 10 - - - -
28/07:30am 22.0 N 6 12 1017.5 - 2.2 - Partly cloudy 10 - - - -
28/07:00am 21.3 SW 4 5 1017.1 - 2.2 - Mostly clear 10 - - - -
28/06:30am 21.5 S 2 6 1016.8 - 2.2 - Mostly clear 10 - - - -
28/06:00am 21.3 SE 4 6 1016.3 R 2.0 - Mostly clear 10 - - - -
28/05:30am 21.2 W 1 4 1016.1 - 2.0 - Partly cloudy 10 - - - -
28/05:00am 21.2 CALM 0 3 1015.9 - 2.0 - Mostly clear 10 - - - -
28/04:30am 22.0 SSE 4 7 1015.9 - 2.0 - Mostly clear 10 - - - -
28/04:00am 21.6 SE 5 8 1015.7 - 2.0 - Mostly clear 10 - - - -
28/03:30am 20.9 WNW 2 4 1015.7 - 2.0 - Mostly clear 10 - - - -
28/03:00am 21.7 SSE 5 7 1015.9 R 2.0 - Mostly clear 10 - - - -
28/02:30am 21.2 NW 1 4 1015.9 - 2.0 - Mostly clear 10 - - - -
28/02:00am 20.6 W 2 3 1016.0 - 2.0 - Mostly clear 10 - - - -
28/01:30am 21.2 WSW 3 5 1016.1 - 2.0 - Mostly clear 10 - - - -
28/01:00am 20.9 CALM 0 0 1016.3 - 2.0 - - 10 - - - -
28/12:30am 21.4 CALM 0 3 1016.4 - 2.0 - Mostly clear 10 - - - -
28/12:00am 21.0 WNW 1 4 1016.4 R 2.0 - Mostly clear 10 - - - -
 
Date/Time
EST
Temp
°C
Wind Pressure Rain since
9am
mm
Weather Cloud Vis
km
Sea
Height
m
Swell
Dir  Spd
kts
Gust
kts
hPa Trend Height
m
Period
s
Dir
27/11:30pm 21.0 CALM 0 0 1016.4 - 2.0 - Mostly clear 10 - - - -
27/11:00pm 21.1 CALM 0 0 1016.4 - 2.0 - Mostly clear 10 - - - -
27/10:30pm 20.8 CALM 0 0 1016.5 - 2.0 Shallow fog - 10 - - - -
27/10:00pm 20.8 CALM 0 0 1016.5 - 2.0 - - 10 - - - -
27/09:52pm 21.0 CALM 0 0 1016.5 - 2.0 - - 6 - - - -
27/09:30pm 21.3 CALM 0 0 1016.5 - 2.0 - - 10 - - - -
27/09:00pm 21.6 WSW 2 4 1016.4 F 2.0 - Mostly clear 10 - - - -
27/08:30pm 21.3 SE 3 4 1016.3 - 2.0 - Mostly clear 10 - - - -
27/08:00pm 21.2 CALM 0 0 1016.0 - 2.0 - Mostly clear 10 - - - -
27/07:30pm 21.6 CALM 0 0 1015.7 - 2.0 - Mostly clear 10 - - - -
27/07:00pm 22.0 CALM 0 0 1015.4 - 2.0 - Mostly clear 10 - - - -
27/06:30pm 22.1 CALM 0 0 1015.2 - 2.0 - Mostly clear 10 - - - -
27/06:00pm 22.8 CALM 0 0 1015.1 F 2.0 - Mostly clear 10 - - - -
27/05:30pm 24.1 CALM 0 0 1014.9 - 2.0 - Mostly clear 10 - - - -
27/05:00pm 24.9 CALM 0 0 1014.7 - 2.0 - Mostly clear 10 - - - -
27/04:30pm 25.8 W 1 4 1014.5 - 2.0 - Mostly clear 10 - - - -
27/04:00pm 26.1 W 5 6 1014.3 - 2.0 - Partly cloudy 10 - - - -
27/03:30pm 25.2 W 5 6 1014.2 - 2.0 - Mostly clear 10 - - - -
27/03:00pm 24.2 W 5 7 1014.5 R 2.0 Rain Cloudy 10 - - - -
27/02:30pm 23.5 W 5 6 1014.6 - 2.0 - Mostly clear 10 - - - -
27/02:20pm 23.2 W 4 5 1014.7 - 2.0 Showers Mostly clear 6 - - - -
27/02:00pm 23.2 CALM 0 0 1014.9 - 1.2 - Mostly clear 10 - - - -
27/01:30pm 24.1 E 5 7 1015.1 - 0.0 Showers Mostly clear 5 - - - -
27/01:06pm 24.9 E 7 9 1015.3 - 0.0 Showers Mostly clear 10 - - - -
27/01:00pm 25.1 E 7 9 1015.4 - 0.0 - Mostly clear 10 - - - -
27/12:30pm 25.0 ESE 7 8 1015.7 - 0.0 Showers Mostly clear 10 - - - -
27/12:00pm 25.6 SE 8 10 1016.0 R 0.0 - Cloudy 10 - - - -
27/11:30am 25.7 SSE 7 9 1016.2 - 0.0 - Mostly clear 10 - - - -
27/11:00am 25.1 S 8 11 1016.4 - 0.0 - Mostly clear 10 - - - -
27/10:30am 24.8 SSE 6 8 1016.7 - 0.0 - Mostly clear 10 - - - -
27/10:00am 24.3 S 5 7 1016.8 - 0.0 - Mostly clear 10 - - - -
27/09:30am 24.5 S 5 7 1016.7 - 0.0 - Mostly clear 10 - - - -
27/09:00am 24.2 WSW 2 6 1016.7 R 1.2 Rain Cloudy 10 - - - -
27/08:30am 23.8 W 3 4 1016.5 - 1.2 - Mostly clear 10 - - - -
27/08:00am 23.1 SSE 4 6 1016.2 - 1.2 - Mostly clear 8 - - - -
27/07:30am 22.9 SSE 7 8 1015.9 - 0.4 Drizzle Mostly clear 10 - - - -
27/07:00am 22.9 SSE 4 6 1015.5 - 0.2 - Mostly clear 9 - - - -
27/06:48am 22.8 SE 5 6 1015.5 - 0.2 Showers Mostly clear 6 - - - -
27/06:30am 22.8 SSE 4 5 1015.3 - 0.2 - Mostly clear 10 - - - -
27/06:00am 22.6 CALM 0 0 1014.9 R 0.2 - Cloudy 10 - - - -
27/05:30am 22.6 WSW 4 5 1014.8 - 0.2 - Partly cloudy 10 - - - -
27/05:00am 22.5 SE 5 6 1014.6 - 0.2 - Partly cloudy 10 - - - -
27/04:30am 22.5 SSE 6 7 1014.6 - 0.2 - Partly cloudy 10 - - - -
27/04:00am 22.7 SE 5 6 1014.4 - 0.2 - Mostly clear 10 - - - -
27/03:30am 22.6 CALM 0 0 1014.5 - 0.2 - Mostly clear 10 - - - -
27/03:00am 22.7 CALM 0 0 1014.5 R 0.2 - Cloudy 10 - - - -
27/02:30am 22.8 NW 1 4 1014.7 - 0.2 - Mostly clear 10 - - - -
27/02:00am 23.0 SSE 8 10 1014.7 - 0.2 - Mostly clear 10 - - - -
27/01:30am 22.9 SSE 7 9 1014.9 - 0.2 - Mostly clear 10 - - - -
27/01:00am 22.9 SSW 2 4 1015.0 - 0.2 - Mostly clear 10 - - - -
27/12:30am 23.4 S 4 6 1015.0 - 0.2 - Mostly clear 10 - - - -
27/12:00am 23.1 SSE 4 8 1015.0 R 0.2 - Cloudy 10 - - - -
 
Date/Time
EST
Temp
°C
Wind Pressure Rain since
9am
mm
Weather Cloud Vis
km
Sea
Height
m
Swell
Dir  Spd
kts
Gust
kts
hPa Trend Height
m
Period
s
Dir
26/11:30pm 23.4 SSE 6 8 1015.1 - 0.2 - Partly cloudy 10 - - - -
26/11:00pm 23.7 S 7 11 1015.1 - 0.2 - Mostly clear 10 - - - -
26/10:30pm 22.9 SSE 9 13 1015.0 - 0.2 - Mostly clear 10 - - - -
26/10:00pm 23.2 SSE 9 14 1015.1 - 0.2 - Mostly clear 10 - - - -
26/09:30pm 23.5 S 11 17 1015.1 - 0.2 - Partly cloudy 10 - - - -
26/09:00pm 23.3 SSE 10 17 1015.0 F 0.2 - Mostly clear 10 - - - -
26/08:30pm 23.2 SSE 10 15 1014.8 - 0.2 - Partly cloudy 10 - - - -
26/08:00pm 23.5 S 11 15 1014.6 - 0.2 - Partly cloudy 10 - - - -
26/07:30pm 23.5 SSE 12 17 1014.4 - 0.2 - Partly cloudy 10 - - - -
26/07:00pm 23.9 S 10 15 1014.3 - 0.2 - Mostly cloudy 10 - - - -
26/06:30pm 24.4 S 8 11 1013.9 - 0.2 - Mostly clear 10 - - - -
26/06:00pm 24.3 CALM 0 0 1013.7 F 0.2 - Cloudy 10 - - - -
26/05:30pm 24.7 CALM 0 0 1013.4 - 0.2 - Mostly clear 10 - - - -
26/05:00pm 25.3 CALM 0 0 1013.2 - 0.2 - Mostly clear 10 - - - -
26/04:30pm 25.7 CALM 0 0 1013.0 - 0.2 - Mostly clear 10 - - - -
26/04:00pm 25.4 W 5 5 1012.8 - 0.2 - Mostly clear 10 - - - -
26/03:30pm 25.2 W 5 6 1012.9 - 0.2 - Mostly clear 10 - - - -
26/03:00pm 25.1 WSW 3 5 1013.0 R 0.2 Showers Cloudy 10 - - - -
26/02:30pm 24.9 W 6 7 1013.2 - 0.2 Showers Mostly clear 10 - - - -
26/02:00pm 24.9 W 5 6 1013.3 - 0.2 - Mostly clear 10 - - - -
26/01:30pm 24.2 W 5 6 1013.7 - 0.2 - Mostly clear 10 - - - -
26/01:00pm 24.2 NW 3 9 1014.2 - 0.2 - Mostly clear 10 - - - -
26/12:40pm 24.3 NE 4 7 1014.5 - 0.2 Showers Mostly clear 9 - - - -
26/12:30pm 24.9 ESE 5 7 1014.6 - 0.0 Showers Mostly clear 9 - - - -
26/12:18pm 25.7 SE 4 6 1014.8 - 0.0 Showers Mostly clear 9 - - - -
26/12:00pm 25.7 SSE 6 8 1014.9 R 0.0 - Cloudy 10 - - - -
26/11:30am 26.3 SSE 6 8 1015.2 - 0.0 - Mostly clear 10 - - - -
26/11:00am 25.7 SSE 6 8 1015.5 - 0.0 - Mostly clear 10 - - - -
26/10:30am 25.4 SE 7 8 1015.6 - 0.0 - Mostly clear 10 - - - -
26/10:00am 24.8 SE 7 10 1015.9 - 0.0 - Mostly clear 10 - - - -
26/09:30am 24.0 ESE 10 12 1015.9 - 0.0 - Mostly clear 10 - - - -
26/09:00am 23.6 SSE 9 13 1015.7 F 4.2 - Cloudy 10 - - - -
26/08:30am 24.0 SSE 10 15 1015.7 - 4.2 - Mostly clear 10 - - - -
26/08:00am 23.4 S 9 14 1015.6 - 4.2 - Mostly clear 10 - - - -
26/07:30am 22.9 S 8 11 1015.5 - 4.2 - Mostly clear 10 - - - -
26/07:00am 22.6 S 9 14 1015.4 - 4.2 - Mostly clear 10 - - - -
26/06:30am 22.5 S 7 11 1015.2 - 4.0 - Mostly clear 10 - - - -
26/06:00am 22.4 S 9 15 1014.7 R 4.0 Showers Cloudy 10 - - - -
26/05:30am 22.1 S 7 12 1014.6 - 4.0 Showers Mostly clear 10 - - - -
26/05:00am 22.1 S 8 12 1014.4 - 3.4 - Mostly clear 8 - - - -

Other Formats:

Comma delimited format used in spreadsheet applications
http://www.bom.gov.au/fwo/IDQ60701/IDQ60701.94287.axf

JavaScript Object Notation format (JSON) in row-major order
http://www.bom.gov.au/fwo/IDQ60701/IDQ60701.94287.json